createdAt,value
2023-05-19T00:01:36.482Z,101359.47
2023-05-19T00:04:03.946Z,101367.56
2023-05-19T00:06:32.796Z,101366.63
2023-05-19T00:09:00.880Z,101354.94
2023-05-19T00:11:28.795Z,101367.56
2023-05-19T00:13:56.496Z,101359.38
2023-05-19T00:16:24.104Z,101355.75
2023-05-19T00:18:57.583Z,101345.91
2023-05-19T00:21:24.220Z,101347.72
2023-05-19T00:23:50.921Z,101337.00
2023-05-19T00:26:17.923Z,101330.75
2023-05-19T00:28:56.081Z,101349.63
2023-05-19T00:31:25.040Z,101339.00
2023-05-19T00:33:53.185Z,101335.44
2023-05-19T00:36:19.930Z,101339.91
2023-05-19T00:38:49.383Z,101340.81
2023-05-19T00:41:16.082Z,101337.16
2023-05-19T00:43:42.841Z,101338.09
2023-05-19T00:46:09.590Z,101341.78
2023-05-19T00:48:36.230Z,101333.72
2023-05-19T00:51:05.266Z,101333.81
2023-05-19T00:53:36.012Z,101322.22
2023-05-19T00:56:03.436Z,101340.25
2023-05-19T00:58:33.642Z,101333.16
2023-05-19T01:01:00.796Z,101339.53
2023-05-19T01:03:27.867Z,101335.97
2023-05-19T01:05:54.608Z,101330.78
2023-05-19T01:08:23.037Z,101345.13
2023-05-19T01:10:52.514Z,101337.88
2023-05-19T01:13:19.267Z,101334.34
2023-05-19T01:16:01.514Z,101344.34
2023-05-19T01:18:40.995Z,101335.31
2023-05-19T01:21:26.094Z,101338.06
2023-05-19T01:24:04.607Z,101330.88
2023-05-19T01:27:09.507Z,101334.53
2023-05-19T01:29:45.175Z,101321.16
2023-05-19T01:32:21.010Z,101325.63
2023-05-19T01:34:50.751Z,101322.13
2023-05-19T01:37:18.039Z,101329.25
2023-05-19T01:39:46.546Z,101337.34
2023-05-19T01:42:15.085Z,101326.59
2023-05-19T01:44:44.577Z,101338.41
2023-05-19T01:47:12.962Z,101340.34
2023-05-19T01:49:39.621Z,101332.25
2023-05-19T01:52:06.467Z,101325.97
2023-05-19T01:54:33.517Z,101329.66
2023-05-19T01:57:06.163Z,101341.38
2023-05-19T01:59:42.121Z,101334.97
2023-05-19T02:02:21.247Z,101341.38
2023-05-19T02:04:55.683Z,101344.09
2023-05-19T02:07:31.027Z,101336.91
2023-05-19T02:10:04.631Z,101334.22
2023-05-19T02:12:34.346Z,101334.25
2023-05-19T02:15:10.180Z,101338.75
2023-05-19T02:17:44.078Z,101327.13
2023-05-19T02:20:11.642Z,101327.25
2023-05-19T02:22:38.204Z,101325.41
2023-05-19T02:25:05.451Z,101328.03
2023-05-19T02:27:33.202Z,101322.69
2023-05-19T02:30:00.005Z,101330.03
2023-05-19T02:32:26.524Z,101323.81
2023-05-19T02:34:54.856Z,101327.41
2023-05-19T02:39:51.337Z,101336.47
2023-05-19T02:42:17.963Z,101326.75
2023-05-19T02:44:47.345Z,101340.22
2023-05-19T02:47:14.084Z,101327.69
2023-05-19T02:49:41.402Z,101307.09
2023-05-19T02:52:09.637Z,101315.19
2023-05-19T02:54:36.544Z,101325.84
2023-05-19T02:57:11.342Z,101325.88
2023-05-19T02:59:41.799Z,101327.66
2023-05-19T03:02:10.751Z,101329.41
2023-05-19T03:04:37.473Z,101327.69
2023-05-19T03:07:04.642Z,101328.59
2023-05-19T03:09:32.831Z,101317.84
2023-05-19T03:11:59.882Z,101307.16
2023-05-19T03:14:33.977Z,101312.59
2023-05-19T03:17:06.276Z,101323.25
2023-05-19T03:19:34.919Z,101316.19
2023-05-19T03:22:02.185Z,101301.78
2023-05-19T03:24:32.200Z,101329.53
2023-05-19T03:27:06.482Z,101309.88
2023-05-19T03:29:33.376Z,101329.53
2023-05-19T03:32:00.380Z,101323.44
2023-05-19T03:34:29.225Z,101337.84
2023-05-19T03:36:58.589Z,101336.13
2023-05-19T03:39:25.579Z,101326.31
2023-05-19T03:41:56.976Z,101323.59
2023-05-19T03:44:28.059Z,101334.44
2023-05-19T03:46:59.083Z,101330.81
2023-05-19T03:49:46.886Z,101336.28
2023-05-19T03:52:40.491Z,101338.13
2023-05-19T03:55:21.941Z,101329.31
2023-05-19T03:57:48.836Z,101330.16
2023-05-19T04:00:19.626Z,101330.22
2023-05-19T04:02:46.783Z,101338.34
2023-05-19T04:05:16.181Z,101332.13
2023-05-19T04:07:46.085Z,101336.56
2023-05-19T04:10:14.927Z,101338.41
2023-05-19T04:12:59.570Z,101321.38
2023-05-19T04:15:30.444Z,101322.38
2023-05-19T04:17:58.587Z,101334.91
2023-05-19T04:20:34.345Z,101343.72
2023-05-19T04:23:05.683Z,101325.78
2023-05-19T04:25:34.521Z,101340.03
2023-05-19T04:28:09.671Z,101314.09
2023-05-19T04:30:43.515Z,101342.66
2023-05-19T04:33:13.008Z,101317.53
2023-05-19T04:35:53.664Z,101336.16
2023-05-19T04:38:26.553Z,101334.47
2023-05-19T04:40:58.343Z,101326.38
2023-05-19T04:43:26.564Z,101341.59
2023-05-19T04:45:57.622Z,101337.06
2023-05-19T04:48:27.811Z,101341.59
2023-05-19T04:51:01.815Z,101346.97
2023-05-19T04:53:29.010Z,101332.53
2023-05-19T04:55:58.884Z,101345.84
2023-05-19T04:58:29.074Z,101343.06
2023-05-19T05:00:57.346Z,101352.84
2023-05-19T05:03:26.876Z,101340.28
2023-05-19T05:05:55.585Z,101343.66
2023-05-19T05:08:23.852Z,101339.16
2023-05-19T05:10:52.409Z,101339.88
2023-05-19T05:13:25.699Z,101349.59
2023-05-19T05:15:53.884Z,101325.28
2023-05-19T05:18:24.541Z,101343.09
2023-05-19T05:20:54.405Z,101341.09
2023-05-19T05:23:21.823Z,101354.47
2023-05-19T05:25:49.946Z,101335.41
2023-05-19T05:28:16.992Z,101343.31
2023-05-19T05:30:44.646Z,101339.78
2023-05-19T05:33:21.965Z,101342.16
2023-05-19T05:35:50.466Z,101351.72
2023-05-19T05:38:29.109Z,101352.38
2023-05-19T05:40:59.566Z,101347.72
2023-05-19T05:43:33.509Z,101330.47
2023-05-19T05:46:06.766Z,101332.97
2023-05-19T05:48:36.224Z,101353.31
2023-05-19T05:51:12.381Z,101345.78
2023-05-19T05:54:01.028Z,101335.66
2023-05-19T05:56:37.310Z,101346.91
2023-05-19T05:59:11.654Z,101341.22
2023-05-19T06:01:43.842Z,101342.59
2023-05-19T06:04:15.521Z,101332.19
2023-05-19T06:06:57.217Z,101350.28
2023-05-19T06:09:33.806Z,101345.06
2023-05-19T06:12:01.727Z,101344.06
2023-05-19T06:14:33.395Z,101347.94
2023-05-19T06:17:21.888Z,101355.84
2023-05-19T06:19:50.542Z,101352.91
2023-05-19T06:22:18.716Z,101350.84
2023-05-19T06:24:45.543Z,101349.72
2023-05-19T06:27:15.318Z,101353.28
2023-05-19T06:29:46.538Z,101341.66
2023-05-19T06:32:13.685Z,101350.34
2023-05-19T06:34:43.835Z,101344.06
2023-05-19T06:37:10.575Z,101350.84
2023-05-19T06:39:42.034Z,101355.66
2023-05-19T06:42:08.764Z,101350.78
2023-05-19T06:44:57.932Z,101354.66
2023-05-19T06:47:26.923Z,101361.09
2023-05-19T06:49:53.732Z,101358.81
2023-05-19T06:52:25.001Z,101357.00
2023-05-19T06:54:54.053Z,101354.00
2023-05-19T06:57:22.982Z,101347.81
2023-05-19T06:59:57.157Z,101353.44
2023-05-19T07:02:24.375Z,101361.94
2023-05-19T07:04:51.282Z,101349.13
2023-05-19T07:07:20.384Z,101340.91
2023-05-19T07:09:47.334Z,101323.59
2023-05-19T07:12:17.213Z,101352.22
2023-05-19T07:14:43.847Z,101343.75
2023-05-19T07:17:11.256Z,101338.50
2023-05-19T07:19:42.261Z,101330.09
2023-05-19T07:22:09.114Z,101312.00
2023-05-19T07:24:40.537Z,101330.63
2023-05-19T07:27:10.419Z,101323.34
2023-05-19T07:29:41.234Z,101334.41
2023-05-19T07:32:08.120Z,101332.31
2023-05-19T07:34:39.247Z,101302.28
2023-05-19T07:37:06.123Z,101303.59
2023-05-19T07:39:35.070Z,101326.00
2023-05-19T07:42:08.915Z,101324.25
2023-05-19T07:44:39.585Z,101325.47
2023-05-19T07:47:09.121Z,101320.13
2023-05-19T07:49:35.866Z,101304.47
2023-05-19T07:52:04.919Z,101311.31
2023-05-19T07:54:37.312Z,101309.56
2023-05-19T07:57:10.452Z,101306.13
2023-05-19T07:59:38.770Z,101296.22
2023-05-19T08:02:07.282Z,101310.41
2023-05-19T08:04:41.365Z,101303.78
2023-05-19T08:07:08.217Z,101315.50
2023-05-19T08:09:34.924Z,101303.06
2023-05-19T08:12:04.534Z,101306.56
2023-05-19T08:14:36.402Z,101303.91
2023-05-19T08:17:04.463Z,101303.91
2023-05-19T08:19:37.454Z,101313.88
2023-05-19T08:22:04.617Z,101304.84
2023-05-19T08:24:31.236Z,101307.53
2023-05-19T08:27:00.895Z,101307.69
2023-05-19T08:29:31.183Z,101304.72
2023-05-19T08:31:59.363Z,101305.63
2023-05-19T08:34:26.085Z,101309.81
2023-05-19T08:36:58.461Z,101292.81
2023-05-19T08:39:25.419Z,101293.63
2023-05-19T08:42:02.613Z,101293.25
2023-05-19T08:44:29.409Z,101309.47
2023-05-19T08:47:52.048Z,101285.56
2023-05-19T08:50:52.224Z,101282.84
2023-05-19T08:56:14.043Z,101270.28
2023-05-19T08:58:49.766Z,101272.06
2023-05-19T09:01:23.554Z,101279.56
2023-05-19T09:03:53.152Z,101284.22
2023-05-19T09:06:22.803Z,101279.66
2023-05-19T09:08:50.881Z,101277.47
2023-05-19T09:11:17.829Z,101279.88
2023-05-19T09:13:51.889Z,101266.03
2023-05-19T09:16:21.128Z,101259.81
2023-05-19T09:18:57.351Z,101260.47
2023-05-19T09:21:34.395Z,101242.28
2023-05-19T09:24:07.169Z,101258.25
2023-05-19T09:26:37.683Z,101255.03
2023-05-19T09:29:12.501Z,101257.63
2023-05-19T09:31:49.674Z,101259.75
2023-05-19T09:34:16.680Z,101250.06
2023-05-19T09:36:47.646Z,101260.59
2023-05-19T09:39:16.713Z,101254.94
2023-05-19T09:41:44.121Z,101256.25
2023-05-19T09:44:13.773Z,101250.50
2023-05-19T09:46:48.294Z,101247.03
2023-05-19T09:49:19.496Z,101257.50
2023-05-19T09:51:48.808Z,101257.44
2023-05-19T09:54:20.397Z,101241.06
2023-05-19T09:56:51.848Z,101242.06
2023-05-19T09:59:19.947Z,101239.53
2023-05-19T10:01:47.285Z,101238.97
2023-05-19T10:04:16.095Z,101240.16
2023-05-19T10:06:43.928Z,101227.97
2023-05-19T10:09:16.097Z,101228.34
2023-05-19T10:11:44.233Z,101223.94
2023-05-19T10:14:11.079Z,101224.84
2023-05-19T10:16:44.459Z,101231.56
2023-05-19T10:19:22.770Z,101214.69
2023-05-19T10:21:51.287Z,101217.13
2023-05-19T10:24:20.994Z,101221.41
2023-05-19T10:26:51.231Z,101226.13
2023-05-19T10:29:24.233Z,101213.53
2023-05-19T10:31:55.331Z,101199.16
2023-05-19T10:34:39.652Z,101203.88
2023-05-19T10:37:17.193Z,101216.50
2023-05-19T10:39:46.521Z,101207.44
2023-05-19T10:42:18.877Z,101215.72
2023-05-19T10:44:58.733Z,101211.91
2023-05-19T10:47:48.133Z,101204.81
2023-05-19T10:50:19.690Z,101201.00
2023-05-19T10:52:59.660Z,101199.13
2023-05-19T10:55:50.260Z,101195.13
2023-05-19T10:58:49.586Z,101204.50
2023-05-19T11:01:19.232Z,101207.47
2023-05-19T11:03:46.886Z,101216.44
2023-05-19T11:06:21.666Z,101200.72
2023-05-19T11:08:52.916Z,101212.53
2023-05-19T11:11:23.655Z,101192.50
2023-05-19T11:13:56.881Z,101185.75
2023-05-19T11:16:27.724Z,101182.38
2023-05-19T11:19:02.890Z,101193.72
2023-05-19T11:21:48.133Z,101190.47
2023-05-19T11:24:39.101Z,101187.88
2023-05-19T11:27:26.233Z,101182.03
2023-05-19T11:29:57.390Z,101181.44
2023-05-19T11:32:27.579Z,101189.88
2023-05-19T11:34:57.989Z,101191.03
2023-05-19T11:37:25.883Z,101179.16
2023-05-19T11:39:52.943Z,101179.25
2023-05-19T11:42:22.548Z,101164.72
2023-05-19T11:44:58.034Z,101163.28
2023-05-19T11:47:26.658Z,101154.91
2023-05-19T11:49:56.381Z,101147.19
2023-05-19T11:52:26.161Z,101157.81
2023-05-19T11:54:52.836Z,101170.22
2023-05-19T11:57:19.957Z,101160.16
2023-05-19T11:59:49.561Z,101149.16
2023-05-19T12:02:18.857Z,101158.22
2023-05-19T12:04:46.048Z,101169.53
2023-05-19T12:07:13.038Z,101162.03
2023-05-19T12:09:42.896Z,101157.44
2023-05-19T12:12:09.693Z,101142.34
2023-05-19T12:14:37.542Z,101130.63
2023-05-19T12:17:10.987Z,101138.13
2023-05-19T12:19:43.678Z,101134.72
2023-05-19T12:22:10.884Z,101131.00
2023-05-19T12:24:41.021Z,101133.78
2023-05-19T12:27:13.250Z,101133.38
2023-05-19T12:29:43.054Z,101131.66
2023-05-19T12:32:10.171Z,101115.50
2023-05-19T12:34:37.342Z,101122.06
2023-05-19T12:37:06.209Z,101120.41
2023-05-19T12:39:33.041Z,101121.44
2023-05-19T12:42:03.199Z,101128.53
2023-05-19T12:44:31.540Z,101127.63
2023-05-19T12:47:00.950Z,101100.09
2023-05-19T12:49:30.466Z,101120.22
2023-05-19T12:51:57.194Z,101105.28
2023-05-19T12:54:27.907Z,101105.34
2023-05-19T12:56:57.469Z,101112.47
2023-05-19T12:59:37.398Z,101108.22
2023-05-19T13:02:10.347Z,101100.94
2023-05-19T13:04:39.665Z,101103.13
2023-05-19T13:07:06.198Z,101110.19
2023-05-19T13:09:39.611Z,101117.41
2023-05-19T13:12:06.498Z,101112.88
2023-05-19T13:14:33.286Z,101113.81
2023-05-19T13:16:59.945Z,101097.13
2023-05-19T13:19:26.686Z,101106.47
2023-05-19T13:21:53.614Z,101106.66
2023-05-19T13:24:23.144Z,101114.28
2023-05-19T13:26:51.646Z,101119.91
2023-05-19T13:29:18.860Z,101113.06
2023-05-19T13:31:48.500Z,101103.41
2023-05-19T13:34:15.149Z,101104.91
2023-05-19T13:36:41.883Z,101103.38
2023-05-19T13:39:26.348Z,101118.88
2023-05-19T13:41:54.552Z,101111.13
2023-05-19T13:44:23.068Z,101107.06
2023-05-19T13:46:50.741Z,101095.69
2023-05-19T13:49:23.820Z,101098.59
2023-05-19T13:51:50.446Z,101104.22
2023-05-19T13:54:17.811Z,101102.72
2023-05-19T13:56:44.593Z,101099.56
2023-05-19T13:59:12.468Z,101107.84
2023-05-19T14:01:41.632Z,101101.06
2023-05-19T14:04:08.321Z,101099.91
2023-05-19T14:06:34.999Z,101088.88
2023-05-19T14:09:04.295Z,101081.00
2023-05-19T14:11:30.877Z,101108.25
2023-05-19T14:13:57.817Z,101090.13
2023-05-19T14:16:25.821Z,101086.59
2023-05-19T14:18:55.277Z,101100.38
2023-05-19T14:21:22.113Z,101091.13
2023-05-19T14:23:50.817Z,101092.13
2023-05-19T14:26:17.372Z,101100.16
2023-05-19T14:28:43.954Z,101099.06
2023-05-19T14:31:11.228Z,101094.47
2023-05-19T14:33:40.381Z,101104.31
2023-05-19T14:36:07.613Z,101108.22
2023-05-19T14:38:34.269Z,101122.13
2023-05-19T14:41:01.005Z,101132.31
2023-05-19T14:43:34.583Z,101111.22
2023-05-19T14:46:01.330Z,101127.16
2023-05-19T14:48:35.200Z,101123.44
2023-05-19T14:51:25.190Z,101110.06
2023-05-19T14:53:52.094Z,101122.66
2023-05-19T14:56:18.694Z,101122.00
2023-05-19T14:58:47.714Z,101118.75
2023-05-19T15:01:17.455Z,101126.06
2023-05-19T15:03:44.271Z,101120.03
2023-05-19T15:06:12.330Z,101115.84
2023-05-19T15:08:41.106Z,101122.88
2023-05-19T15:11:07.725Z,101131.41
2023-05-19T15:13:34.265Z,101112.53
2023-05-19T15:16:16.097Z,101128.16
2023-05-19T15:18:44.094Z,101129.94
2023-05-19T15:21:12.272Z,101129.09
2023-05-19T15:23:38.966Z,101135.25
2023-05-19T15:26:05.692Z,101136.31
2023-05-19T15:28:32.330Z,101130.06
2023-05-19T15:30:58.894Z,101128.66
2023-05-19T15:33:25.582Z,101130.31
2023-05-19T15:35:52.167Z,101119.53
2023-05-19T15:38:20.335Z,101123.34
2023-05-19T15:40:47.001Z,101120.94
2023-05-19T15:43:13.573Z,101122.72
2023-05-19T15:45:40.071Z,101115.66
2023-05-19T15:48:08.114Z,101118.16
2023-05-19T15:50:38.923Z,101119.22
2023-05-19T15:53:05.625Z,101114.19
2023-05-19T15:55:33.495Z,101113.03
2023-05-19T15:58:00.235Z,101122.56
2023-05-19T16:00:26.811Z,101123.78
2023-05-19T16:02:53.369Z,101108.56
2023-05-19T16:05:20.335Z,101113.59
2023-05-19T16:07:46.732Z,101117.03
2023-05-19T16:10:13.333Z,101121.25
2023-05-19T16:12:41.142Z,101121.78
2023-05-19T16:15:13.057Z,101124.38
2023-05-19T16:17:39.964Z,101116.00
2023-05-19T16:20:07.653Z,101115.19
2023-05-19T16:22:34.193Z,101110.28
2023-05-19T16:25:00.682Z,101111.31
2023-05-19T16:27:27.114Z,101107.91
2023-05-19T16:29:54.975Z,101112.59
2023-05-19T16:32:21.438Z,101113.59
2023-05-19T16:34:47.933Z,101115.53
2023-05-19T16:37:17.504Z,101113.59
2023-05-19T16:39:44.343Z,101116.16
2023-05-19T16:42:10.837Z,101118.88
2023-05-19T16:44:37.308Z,101110.84
2023-05-19T16:47:05.171Z,101117.13
2023-05-19T16:49:31.756Z,101120.03
2023-05-19T16:51:58.199Z,101133.91
2023-05-19T16:54:24.821Z,101129.63
2023-05-19T16:56:51.839Z,101128.97
2023-05-19T16:59:20.584Z,101137.59
2023-05-19T17:01:47.268Z,101120.84
2023-05-19T17:04:15.074Z,101123.81
2023-05-19T17:06:41.611Z,101117.59
2023-05-19T17:09:08.221Z,101122.28
2023-05-19T17:11:34.673Z,101112.28
2023-05-19T17:14:01.345Z,101110.50
2023-05-19T17:16:27.952Z,101112.44
2023-05-19T17:18:57.149Z,101120.00
2023-05-19T17:21:54.614Z,101122.09
2023-05-19T17:24:23.285Z,101119.91
2023-05-19T17:26:52.639Z,101126.53
2023-05-19T17:29:19.165Z,101123.16
2023-05-19T17:31:45.757Z,101123.34
2023-05-19T17:34:12.280Z,101130.09
2023-05-19T17:36:41.021Z,101137.72
2023-05-19T17:39:07.506Z,101138.81
2023-05-19T17:41:33.961Z,101133.66
2023-05-19T17:44:02.982Z,101133.00
2023-05-19T17:46:35.374Z,101124.13
2023-05-19T17:49:04.570Z,101124.25
2023-05-19T17:51:31.639Z,101131.88
2023-05-19T17:54:00.326Z,101129.22
2023-05-19T17:56:27.152Z,101128.56
2023-05-19T17:59:01.510Z,101133.50
2023-05-19T18:01:30.355Z,101131.22
2023-05-19T18:03:57.547Z,101136.97
2023-05-19T18:06:27.746Z,101120.00
2023-05-19T18:08:57.820Z,101123.97
2023-05-19T18:11:26.269Z,101131.50
2023-05-19T18:13:52.809Z,101131.72
2023-05-19T18:16:19.337Z,101124.69
2023-05-19T18:18:45.952Z,101127.81
2023-05-19T18:21:12.436Z,101122.38
2023-05-19T18:23:38.863Z,101141.75
2023-05-19T18:26:21.616Z,101126.63
2023-05-19T18:28:52.252Z,101131.19
2023-05-19T18:31:18.703Z,101126.00
2023-05-19T18:33:45.948Z,101120.75
2023-05-19T18:36:12.586Z,101121.84
2023-05-19T18:38:39.208Z,101126.69
2023-05-19T18:41:07.199Z,101121.38
2023-05-19T18:43:38.307Z,101127.91
2023-05-19T18:46:11.503Z,101124.34
2023-05-19T18:48:38.200Z,101140.84
2023-05-19T18:51:04.684Z,101132.94
2023-05-19T18:53:33.007Z,101139.44
2023-05-19T18:56:03.636Z,101140.56
2023-05-19T18:58:33.292Z,101135.41
2023-05-19T19:01:00.012Z,101137.38
2023-05-19T19:03:27.962Z,101135.63
2023-05-19T19:05:55.001Z,101140.31
2023-05-19T19:08:24.491Z,101145.00
2023-05-19T19:10:51.763Z,101135.16
2023-05-19T19:13:21.633Z,101137.06
2023-05-19T19:15:48.163Z,101140.03
2023-05-19T19:18:14.741Z,101148.38
2023-05-19T19:20:42.653Z,101152.09
2023-05-19T19:23:12.230Z,101154.97
2023-05-19T19:25:38.797Z,101149.69
2023-05-19T19:28:05.292Z,101165.16
2023-05-19T19:30:33.602Z,101167.91
2023-05-19T19:33:00.437Z,101161.56
2023-05-19T19:35:27.000Z,101160.81
2023-05-19T19:38:00.241Z,101159.03
2023-05-19T19:40:26.866Z,101166.41
2023-05-19T19:43:02.526Z,101182.78
2023-05-19T19:45:29.097Z,101177.47
2023-05-19T19:47:55.741Z,101168.53
2023-05-19T19:50:24.891Z,101175.06
2023-05-19T19:52:55.179Z,101165.38
2023-05-19T19:55:21.917Z,101167.22
2023-05-19T19:57:48.567Z,101169.19
2023-05-19T20:00:20.581Z,101169.38
2023-05-19T20:03:03.521Z,101167.72
2023-05-19T20:05:31.387Z,101177.78
2023-05-19T20:07:59.456Z,101182.41
2023-05-19T20:10:27.849Z,101177.13
2023-05-19T20:12:57.004Z,101190.03
2023-05-19T20:15:23.513Z,101172.06
2023-05-19T20:17:50.402Z,101171.28
2023-05-19T20:20:17.957Z,101185.09
2023-05-19T20:22:44.535Z,101190.66
2023-05-19T20:25:12.472Z,101187.16
2023-05-19T20:27:39.082Z,101185.41
2023-05-19T20:30:06.962Z,101189.19
2023-05-19T20:32:33.782Z,101192.19
2023-05-19T20:35:00.521Z,101189.41
2023-05-19T20:37:27.095Z,101193.16
2023-05-19T20:39:53.969Z,101193.31
2023-05-19T20:42:23.569Z,101198.03
2023-05-19T20:44:52.624Z,101181.19
2023-05-19T20:47:19.508Z,101191.16
2023-05-19T20:49:46.200Z,101189.47
2023-05-19T20:52:20.829Z,101197.66
2023-05-19T20:54:47.644Z,101190.59
2023-05-19T20:57:14.403Z,101183.56
2023-05-19T20:59:42.663Z,101191.78
2023-05-19T21:02:12.514Z,101197.25
2023-05-19T21:04:41.204Z,101199.13
2023-05-19T21:07:09.708Z,101184.88
2023-05-19T21:09:36.451Z,101180.41
2023-05-19T21:12:06.362Z,101180.41
2023-05-19T21:14:33.322Z,101183.25
2023-05-19T21:17:01.271Z,101182.41
2023-05-19T21:19:28.104Z,101183.34
2023-05-19T21:22:02.236Z,101196.06
2023-05-19T21:24:28.858Z,101193.53
2023-05-19T21:26:57.531Z,101195.47
2023-05-19T21:29:24.146Z,101182.19
2023-05-19T21:31:50.806Z,101190.22
2023-05-19T21:34:19.137Z,101189.44
2023-05-19T21:36:47.171Z,101197.56
2023-05-19T21:39:14.812Z,101194.00
2023-05-19T21:41:52.518Z,101198.78
2023-05-19T21:44:21.740Z,101206.94
2023-05-19T21:46:48.493Z,101199.75
2023-05-19T21:49:17.167Z,101200.78
2023-05-19T21:51:45.367Z,101187.28
2023-05-19T21:54:12.304Z,101195.44
2023-05-19T21:56:39.103Z,101199.94
2023-05-19T21:59:09.112Z,101197.47
2023-05-19T22:01:39.896Z,101200.31
2023-05-19T22:04:06.698Z,101199.38
2023-05-19T22:06:35.945Z,101189.63
2023-05-19T22:09:06.686Z,101199.53
2023-05-19T22:11:35.706Z,101195.16
2023-05-19T22:14:04.130Z,101199.72
2023-05-19T22:16:30.879Z,101196.00
2023-05-19T22:18:57.822Z,101202.38
2023-05-19T22:21:35.817Z,101206.84
2023-05-19T22:24:07.017Z,101203.19
2023-05-19T22:26:36.740Z,101196.00
2023-05-19T22:29:03.501Z,101204.91
2023-05-19T22:31:30.084Z,101207.63
2023-05-19T22:33:58.446Z,101198.72
2023-05-19T22:36:31.744Z,101203.09
2023-05-19T22:39:05.847Z,101194.00
2023-05-19T22:41:36.006Z,101188.59
2023-05-19T22:44:02.693Z,101198.34
2023-05-19T22:46:32.789Z,101193.00
2023-05-19T22:49:01.647Z,101194.88
2023-05-19T22:51:29.718Z,101194.88
2023-05-19T22:53:58.327Z,101198.59
2023-05-19T22:56:27.799Z,101198.53
2023-05-19T22:58:56.725Z,101199.38
2023-05-19T23:01:23.432Z,101192.09
2023-05-19T23:03:51.555Z,101200.03
2023-05-19T23:06:18.358Z,101184.78
2023-05-19T23:08:46.152Z,101189.44
2023-05-19T23:11:16.472Z,101202.91
2023-05-19T23:13:44.913Z,101202.97
2023-05-19T23:16:14.813Z,101196.63
2023-05-19T23:18:43.595Z,101189.44
2023-05-19T23:21:10.606Z,101197.66
2023-05-19T23:23:38.809Z,101194.97
2023-05-19T23:26:07.333Z,101194.09
2023-05-19T23:28:36.871Z,101192.41
2023-05-19T23:31:10.816Z,101192.34
2023-05-19T23:33:37.775Z,101190.53
2023-05-19T23:36:09.570Z,101182.50
2023-05-19T23:38:39.150Z,101181.56
2023-05-19T23:41:36.262Z,101176.28
2023-05-19T23:44:05.384Z,101180.72
2023-05-19T23:46:33.476Z,101169.00
2023-05-19T23:49:00.221Z,101182.59
2023-05-19T23:51:26.742Z,101177.22
2023-05-19T23:54:00.253Z,101175.38
2023-05-19T23:56:26.871Z,101176.31
2023-05-19T23:58:53.493Z,101170.78
